createdAt,value
2022-11-22T00:00:15.917Z,100.00
2022-11-22T00:02:42.968Z,100.00
2022-11-22T00:05:09.803Z,100.00
2022-11-22T00:07:38.232Z,100.00
2022-11-22T00:10:07.067Z,100.00
2022-11-22T00:12:33.944Z,100.00
2022-11-22T00:15:00.516Z,100.00
2022-11-22T00:17:27.207Z,100.00
2022-11-22T00:19:54.032Z,100.00
2022-11-22T00:22:20.834Z,100.00
2022-11-22T00:24:47.612Z,100.00
2022-11-22T00:27:14.484Z,100.00
2022-11-22T00:29:40.999Z,100.00
2022-11-22T00:32:07.882Z,100.00
2022-11-22T00:34:34.659Z,100.00
2022-11-22T00:37:01.583Z,100.00
2022-11-22T00:39:28.318Z,100.00
2022-11-22T00:41:55.562Z,100.00
2022-11-22T00:44:22.291Z,100.00
2022-11-22T00:46:48.893Z,100.00
2022-11-22T00:49:15.848Z,100.00
2022-11-22T00:51:42.598Z,100.00
2022-11-22T00:54:10.227Z,100.00
2022-11-22T00:56:36.955Z,100.00
2022-11-22T00:59:03.614Z,100.00
2022-11-22T01:01:30.376Z,100.00
2022-11-22T01:03:57.011Z,100.00
2022-11-22T01:06:23.582Z,100.00
2022-11-22T01:08:50.142Z,100.00
2022-11-22T01:11:19.022Z,100.00
2022-11-22T01:13:46.055Z,100.00
2022-11-22T01:16:13.617Z,100.00
2022-11-22T01:18:40.579Z,100.00
2022-11-22T01:21:07.546Z,100.00
2022-11-22T01:23:34.732Z,100.00
2022-11-22T01:26:02.124Z,100.00
2022-11-22T01:28:29.058Z,100.00
2022-11-22T01:30:55.931Z,100.00
2022-11-22T01:33:22.653Z,100.00
2022-11-22T01:35:49.271Z,100.00
2022-11-22T01:38:16.003Z,100.00
2022-11-22T01:40:43.201Z,100.00
2022-11-22T01:43:17.128Z,100.00
2022-11-22T01:45:50.496Z,100.00
2022-11-22T01:48:35.822Z,100.00
2022-11-22T01:51:09.244Z,100.00
2022-11-22T01:53:39.053Z,100.00
2022-11-22T01:56:10.218Z,100.00
2022-11-22T01:58:40.356Z,100.00
2022-11-22T02:01:07.754Z,100.00
2022-11-22T02:03:36.375Z,100.00
2022-11-22T02:06:03.534Z,100.00
2022-11-22T02:08:37.835Z,100.00
2022-11-22T02:11:05.598Z,100.00
2022-11-22T02:13:36.643Z,100.00
2022-11-22T02:16:04.183Z,100.00
2022-11-22T02:18:31.072Z,100.00
2022-11-22T02:20:58.554Z,100.00
2022-11-22T02:23:50.353Z,100.00
2022-11-22T02:26:17.169Z,100.00
2022-11-22T02:28:44.359Z,100.00
2022-11-22T02:31:48.968Z,100.00
2022-11-22T02:34:15.713Z,100.00
2022-11-22T02:36:54.735Z,100.00
2022-11-22T02:39:27.754Z,100.00
2022-11-22T02:41:56.894Z,100.00
2022-11-22T02:44:24.765Z,100.00
2022-11-22T02:46:54.012Z,100.00
2022-11-22T02:49:22.889Z,100.00
2022-11-22T02:51:50.759Z,100.00
2022-11-22T02:54:17.710Z,100.00
2022-11-22T02:56:44.621Z,100.00
2022-11-22T02:59:11.366Z,100.00
2022-11-22T03:01:38.166Z,100.00
2022-11-22T03:04:05.421Z,100.00
2022-11-22T03:06:32.007Z,100.00
2022-11-22T03:08:58.613Z,100.00
2022-11-22T03:11:25.395Z,100.00
2022-11-22T03:13:52.108Z,100.00
2022-11-22T03:16:18.951Z,100.00
2022-11-22T03:18:45.693Z,100.00
2022-11-22T03:21:12.334Z,100.00
2022-11-22T03:23:39.053Z,100.00
2022-11-22T03:26:11.052Z,100.00
2022-11-22T03:28:37.743Z,100.00
2022-11-22T03:31:06.478Z,100.00
2022-11-22T03:33:34.625Z,100.00
2022-11-22T03:36:02.087Z,100.00
2022-11-22T03:38:28.935Z,100.00
2022-11-22T03:40:55.947Z,100.00
2022-11-22T03:43:23.596Z,100.00
2022-11-22T03:45:50.289Z,100.00
2022-11-22T03:48:17.535Z,100.00
2022-11-22T03:50:44.862Z,100.00
2022-11-22T03:53:12.251Z,100.00
2022-11-22T03:55:39.495Z,100.00
2022-11-22T03:58:06.672Z,99.84
2022-11-22T04:00:34.992Z,99.36
2022-11-22T04:03:02.389Z,99.28
2022-11-22T04:05:28.915Z,99.53
2022-11-22T04:07:58.836Z,99.53
2022-11-22T04:10:26.264Z,99.44
2022-11-22T04:12:57.450Z,99.34
2022-11-22T04:15:24.439Z,99.42
2022-11-22T04:17:51.076Z,99.53
2022-11-22T04:20:41.619Z,99.46
2022-11-22T04:23:09.850Z,99.64
2022-11-22T04:25:39.083Z,99.57
2022-11-22T04:28:07.595Z,99.71
2022-11-22T04:30:53.353Z,99.37
2022-11-22T04:33:20.973Z,99.96
2022-11-22T04:35:48.579Z,99.58
2022-11-22T04:38:17.276Z,99.38
2022-11-22T04:40:44.000Z,99.73
2022-11-22T04:43:37.652Z,99.78
2022-11-22T04:46:04.463Z,100.00
2022-11-22T04:48:31.099Z,99.82
2022-11-22T04:51:16.117Z,99.84
2022-11-22T04:53:44.506Z,99.72
2022-11-22T04:56:11.711Z,99.30
2022-11-22T04:58:38.672Z,99.56
2022-11-22T05:01:05.423Z,99.19
2022-11-22T05:03:32.305Z,99.55
2022-11-22T05:06:02.819Z,99.42
2022-11-22T05:08:29.879Z,99.84
2022-11-22T05:10:56.750Z,99.50
2022-11-22T05:13:29.956Z,99.70
2022-11-22T05:15:57.600Z,99.43
2022-11-22T05:18:25.684Z,99.57
2022-11-22T05:20:53.006Z,99.22
2022-11-22T05:23:39.929Z,99.28
2022-11-22T05:26:07.150Z,99.26
2022-11-22T05:28:36.704Z,99.20
2022-11-22T05:31:08.675Z,99.05
2022-11-22T05:33:39.962Z,99.05
2022-11-22T05:36:07.152Z,98.79
2022-11-22T05:38:40.743Z,99.22
2022-11-22T05:41:10.024Z,99.07
2022-11-22T05:43:37.691Z,99.39
2022-11-22T05:46:13.059Z,99.28
2022-11-22T05:48:41.924Z,99.37
2022-11-22T05:51:11.329Z,99.50
2022-11-22T05:53:39.013Z,99.47
2022-11-22T05:56:24.439Z,99.31
2022-11-22T05:58:51.683Z,99.19
2022-11-22T06:01:22.915Z,99.12
2022-11-22T06:03:50.612Z,99.18
2022-11-22T06:06:17.314Z,99.19
2022-11-22T06:08:48.489Z,99.00
2022-11-22T06:11:26.640Z,99.02
2022-11-22T06:13:59.137Z,99.60
2022-11-22T06:16:26.803Z,99.05
2022-11-22T06:18:54.351Z,99.41
2022-11-22T06:21:23.692Z,98.61
2022-11-22T06:23:54.589Z,98.80
2022-11-22T06:26:22.919Z,98.96
2022-11-22T06:28:49.946Z,98.86
2022-11-22T06:31:21.907Z,98.86
2022-11-22T06:33:48.588Z,99.04
2022-11-22T06:36:16.467Z,98.97
2022-11-22T06:38:44.334Z,98.93
2022-11-22T06:41:13.357Z,99.32
2022-11-22T06:43:48.030Z,99.25
2022-11-22T06:46:17.570Z,98.75
2022-11-22T06:48:44.345Z,98.44
2022-11-22T06:51:14.079Z,99.25
2022-11-22T06:53:49.210Z,98.48
2022-11-22T06:56:20.096Z,98.70
2022-11-22T06:58:48.485Z,98.38
2022-11-22T07:01:35.999Z,98.22
2022-11-22T07:04:03.814Z,98.81
2022-11-22T07:06:33.338Z,97.82
2022-11-22T07:09:01.400Z,98.81
2022-11-22T07:11:30.168Z,97.96
2022-11-22T07:14:03.537Z,98.01
2022-11-22T07:16:34.277Z,98.01
2022-11-22T07:19:00.957Z,98.56
2022-11-22T07:21:27.992Z,98.24
2022-11-22T07:23:55.956Z,98.25
2022-11-22T07:26:25.736Z,97.23
2022-11-22T07:28:52.943Z,96.74
2022-11-22T07:31:19.999Z,96.69
2022-11-22T07:33:46.666Z,96.54
2022-11-22T07:36:19.152Z,96.41
2022-11-22T07:38:48.010Z,96.26
2022-11-22T07:41:15.445Z,97.04
2022-11-22T07:43:42.453Z,97.12
2022-11-22T07:46:21.707Z,96.34
2022-11-22T07:48:49.802Z,95.88
2022-11-22T07:51:16.985Z,95.50
2022-11-22T07:53:43.643Z,95.46
2022-11-22T07:56:10.283Z,94.59
2022-11-22T07:58:37.725Z,94.03
2022-11-22T08:01:09.177Z,94.39
2022-11-22T08:03:36.848Z,94.12
2022-11-22T08:06:05.254Z,94.39
2022-11-22T08:08:32.097Z,94.50
2022-11-22T08:10:59.010Z,94.55
2022-11-22T08:13:25.909Z,93.98
2022-11-22T08:15:54.717Z,94.01
2022-11-22T08:18:22.755Z,93.88
2022-11-22T08:20:49.297Z,93.28
2022-11-22T08:23:15.906Z,93.84
2022-11-22T08:25:42.598Z,93.16
2022-11-22T08:28:09.153Z,92.66
2022-11-22T08:30:35.706Z,92.98
2022-11-22T08:33:02.378Z,92.69
2022-11-22T08:35:29.015Z,93.10
2022-11-22T08:37:58.924Z,93.02
2022-11-22T08:40:25.533Z,93.62
2022-11-22T08:42:56.585Z,93.17
2022-11-22T08:45:23.536Z,92.94
2022-11-22T08:47:50.441Z,92.83
2022-11-22T08:50:18.288Z,92.97
2022-11-22T08:52:44.849Z,92.69
2022-11-22T08:55:11.451Z,91.88
2022-11-22T08:57:38.104Z,92.60
2022-11-22T09:00:06.417Z,92.46
2022-11-22T09:02:33.010Z,92.43
2022-11-22T09:04:59.613Z,92.50
2022-11-22T09:10:14.190Z,91.76
2022-11-22T09:12:44.538Z,92.32
2022-11-22T09:15:11.204Z,91.91
2022-11-22T09:17:37.727Z,91.61
2022-11-22T09:20:05.323Z,91.34
2022-11-22T09:22:32.390Z,91.52
2022-11-22T09:24:58.996Z,90.65
2022-11-22T09:27:25.706Z,91.48
2022-11-22T09:29:52.397Z,91.04
2022-11-22T09:32:18.911Z,91.27
2022-11-22T09:34:45.614Z,90.75
2022-11-22T09:37:12.747Z,91.06
2022-11-22T09:39:42.591Z,90.73
2022-11-22T09:42:22.300Z,90.87
2022-11-22T09:45:16.449Z,91.23
2022-11-22T09:47:55.876Z,90.45
2022-11-22T09:50:50.384Z,90.52
2022-11-22T09:53:24.946Z,90.20
2022-11-22T09:55:56.230Z,89.84
2022-11-22T09:58:29.377Z,89.97
2022-11-22T10:01:03.047Z,89.97
2022-11-22T10:03:53.038Z,89.92
2022-11-22T10:06:27.481Z,89.30
2022-11-22T10:09:22.051Z,89.15
2022-11-22T10:11:58.327Z,88.89
2022-11-22T10:15:03.035Z,88.63
2022-11-22T10:17:47.980Z,88.21
2022-11-22T10:20:23.570Z,87.86
2022-11-22T10:22:51.022Z,87.54
2022-11-22T10:25:26.630Z,87.60
2022-11-22T10:28:01.860Z,87.42
2022-11-22T10:30:36.558Z,87.07
2022-11-22T10:33:21.752Z,86.98
2022-11-22T10:36:14.707Z,87.10
2022-11-22T10:39:02.762Z,87.24
2022-11-22T10:41:50.100Z,87.06
2022-11-22T10:44:47.937Z,87.38
2022-11-22T10:47:41.845Z,87.43
2022-11-22T10:50:23.789Z,87.32
2022-11-22T10:52:50.704Z,87.47
2022-11-22T10:55:26.119Z,87.69
2022-11-22T10:58:01.505Z,87.41
2022-11-22T11:00:31.808Z,87.37
2022-11-22T11:03:37.466Z,87.68
2022-11-22T11:06:38.046Z,87.62
2022-11-22T11:11:54.817Z,87.52
2022-11-22T11:14:30.391Z,87.49
2022-11-22T11:16:59.433Z,87.53
2022-11-22T11:19:30.795Z,87.23
2022-11-22T11:22:01.993Z,87.12
2022-11-22T11:24:31.209Z,87.19
2022-11-22T11:27:00.517Z,86.70
2022-11-22T11:29:53.085Z,86.53
2022-11-22T11:32:21.267Z,86.11
2022-11-22T11:34:56.109Z,86.55
2022-11-22T11:37:35.369Z,86.14
2022-11-22T11:40:06.147Z,86.85
2022-11-22T11:42:35.269Z,86.40
2022-11-22T11:45:33.921Z,85.96
2022-11-22T11:48:00.687Z,85.78
2022-11-22T11:50:30.138Z,85.45
2022-11-22T11:53:06.004Z,84.83
2022-11-22T11:55:36.496Z,85.50
2022-11-22T11:58:17.617Z,85.43
2022-11-22T12:00:45.426Z,85.33
2022-11-22T12:03:16.608Z,85.06
2022-11-22T12:05:43.387Z,84.95
2022-11-22T12:08:36.708Z,85.09
2022-11-22T12:11:10.049Z,85.32
2022-11-22T12:14:12.330Z,85.58
2022-11-22T12:16:40.115Z,85.59
2022-11-22T12:19:14.585Z,85.60
2022-11-22T12:22:09.302Z,85.63
2022-11-22T12:25:16.542Z,86.04
2022-11-22T12:27:34.916Z,85.79
2022-11-22T12:30:01.854Z,86.08
2022-11-22T12:32:39.974Z,85.45
2022-11-22T12:35:18.090Z,85.79
2022-11-22T12:38:11.432Z,85.86
2022-11-22T12:40:38.356Z,85.78
2022-11-22T12:43:15.780Z,86.18
2022-11-22T12:46:08.910Z,86.58
2022-11-22T12:49:07.220Z,86.88
2022-11-22T12:51:50.035Z,86.95
2022-11-22T12:54:25.614Z,86.74
2022-11-22T12:56:57.792Z,86.73
2022-11-22T12:59:38.777Z,86.91
2022-11-22T13:02:12.796Z,87.53
2022-11-22T13:04:58.985Z,86.92
2022-11-22T13:07:32.123Z,86.79
2022-11-22T13:10:09.101Z,86.99
2022-11-22T13:12:39.310Z,86.95
2022-11-22T13:15:06.830Z,86.95
2022-11-22T13:17:36.235Z,86.72
2022-11-22T13:20:03.410Z,87.25
2022-11-22T13:22:34.670Z,87.39
2022-11-22T13:25:32.632Z,87.74
2022-11-22T13:28:02.768Z,87.70
2022-11-22T13:30:31.045Z,87.83
2022-11-22T13:33:02.247Z,87.97
2022-11-22T13:35:38.936Z,87.98
2022-11-22T13:38:19.290Z,87.91
2022-11-22T13:40:47.730Z,88.04
2022-11-22T13:43:21.227Z,88.38
2022-11-22T13:45:55.405Z,88.35
2022-11-22T13:48:40.739Z,88.59
2022-11-22T13:51:13.483Z,88.53
2022-11-22T13:53:46.168Z,88.72
2022-11-22T13:56:15.892Z,88.81
2022-11-22T13:58:51.001Z,88.92
2022-11-22T14:01:33.649Z,89.01
2022-11-22T14:04:15.820Z,89.07
2022-11-22T14:07:00.812Z,88.78
2022-11-22T14:09:36.944Z,88.62
2022-11-22T14:12:29.623Z,88.73
2022-11-22T14:15:19.541Z,88.74
2022-11-22T14:18:04.772Z,88.49
2022-11-22T14:21:02.957Z,88.42
2022-11-22T14:23:57.197Z,88.34
2022-11-22T14:26:51.504Z,88.71
2022-11-22T14:29:53.545Z,88.79
2022-11-22T14:32:23.339Z,88.34
2022-11-22T14:35:18.088Z,88.37
2022-11-22T14:38:01.957Z,88.80
2022-11-22T14:40:39.703Z,88.78
2022-11-22T14:43:29.858Z,89.08
2022-11-22T14:46:02.404Z,88.68
2022-11-22T14:48:44.993Z,89.73
2022-11-22T14:51:32.493Z,89.51
2022-11-22T14:54:21.584Z,89.55
2022-11-22T14:56:49.457Z,89.74
2022-11-22T14:59:45.408Z,89.48
2022-11-22T15:02:33.658Z,90.03
2022-11-22T15:09:14.914Z,90.00
2022-11-22T15:09:21.961Z,90.15
2022-11-22T15:11:34.958Z,90.30
2022-11-22T15:14:20.415Z,90.42
2022-11-22T15:57:37.621Z,90.39
2022-11-22T16:00:20.819Z,90.17
2022-11-22T16:03:01.597Z,90.75
2022-11-22T16:06:09.244Z,90.79
2022-11-22T16:08:26.428Z,90.71
2022-11-22T16:10:57.684Z,90.66
2022-11-22T16:13:27.324Z,90.01
2022-11-22T16:16:10.316Z,89.81
2022-11-22T16:18:37.957Z,90.25
2022-11-22T16:21:13.568Z,90.04
2022-11-22T16:23:41.646Z,89.79
2022-11-22T16:26:31.768Z,89.19
2022-11-22T16:29:32.212Z,89.28
2022-11-22T16:32:13.253Z,89.74
2022-11-22T16:34:43.929Z,89.21
2022-11-22T16:37:36.372Z,89.36
2022-11-22T16:40:06.087Z,89.74
2022-11-22T16:42:33.336Z,90.02
2022-11-22T16:45:04.048Z,89.79
2022-11-22T16:47:31.323Z,89.78
2022-11-22T16:49:57.836Z,89.83
2022-11-22T16:52:25.007Z,89.80
2022-11-22T16:54:51.589Z,89.56
2022-11-22T16:57:18.565Z,89.33
2022-11-22T16:59:45.127Z,90.05
2022-11-22T17:02:13.748Z,89.63
2022-11-22T17:04:41.372Z,90.24
2022-11-22T17:07:12.177Z,90.27
2022-11-22T17:09:40.067Z,89.43
2022-11-22T17:12:14.517Z,89.86
2022-11-22T17:18:53.324Z,90.13
2022-11-22T17:21:37.253Z,89.38
2022-11-22T17:24:10.050Z,90.28
2022-11-22T17:26:36.876Z,90.12
2022-11-22T17:29:03.469Z,90.15
2022-11-22T17:31:32.965Z,89.53
2022-11-22T17:33:59.643Z,89.15
2022-11-22T17:36:31.818Z,89.46
2022-11-22T17:39:00.288Z,89.61
2022-11-22T17:41:27.597Z,89.83
2022-11-22T17:43:54.394Z,90.47
2022-11-22T17:46:21.038Z,90.12
2022-11-22T17:48:55.219Z,89.95
2022-11-22T17:51:22.326Z,90.74
2022-11-22T17:53:50.119Z,90.59
2022-11-22T17:56:17.071Z,90.61
2022-11-22T17:58:43.997Z,91.14
2022-11-22T18:01:13.168Z,90.94
2022-11-22T18:03:41.105Z,91.16
2022-11-22T18:06:09.007Z,91.06
2022-11-22T18:08:36.242Z,91.40
2022-11-22T18:11:04.192Z,91.67
2022-11-22T18:13:34.296Z,90.94
2022-11-22T18:16:04.056Z,90.93
2022-11-22T18:21:19.162Z,91.57
2022-11-22T18:23:45.883Z,91.73
2022-11-22T18:31:53.225Z,91.36
2022-11-22T18:34:21.299Z,91.47
2022-11-22T18:37:04.649Z,90.63
2022-11-22T18:39:38.012Z,90.40
2022-11-22T18:42:07.369Z,90.90
2022-11-22T18:44:34.196Z,90.24
2022-11-22T18:47:00.849Z,89.84
2022-11-22T18:49:27.711Z,90.00
2022-11-22T18:51:54.391Z,90.02
2022-11-22T18:54:22.182Z,89.75
2022-11-22T18:56:50.499Z,90.00
2022-11-22T18:59:17.413Z,89.88
2022-11-22T19:01:44.008Z,89.59
2022-11-22T19:04:13.643Z,90.32
2022-11-22T19:06:40.658Z,90.09
2022-11-22T19:09:08.363Z,89.78
2022-11-22T19:11:38.016Z,90.12
2022-11-22T19:14:04.855Z,89.87
2022-11-22T19:16:31.854Z,90.08
2022-11-22T19:18:59.307Z,89.43
2022-11-22T19:21:28.301Z,89.99
2022-11-22T19:23:56.688Z,89.94
2022-11-22T19:26:28.518Z,90.36
2022-11-22T19:28:56.438Z,89.66
2022-11-22T19:31:27.876Z,89.83
2022-11-22T19:33:55.348Z,89.74
2022-11-22T19:36:27.876Z,89.46
2022-11-22T19:38:59.702Z,89.13
2022-11-22T19:41:26.778Z,90.13
2022-11-22T19:43:53.637Z,89.61
2022-11-22T19:46:20.496Z,89.15
2022-11-22T19:48:51.809Z,89.62
2022-11-22T19:51:19.219Z,89.28
2022-11-22T19:53:45.793Z,89.16
2022-11-22T19:56:15.207Z,89.74
2022-11-22T19:58:43.457Z,89.47
2022-11-22T20:01:16.558Z,89.83
2022-11-22T20:03:44.351Z,90.26
2022-11-22T20:06:12.845Z,89.92
2022-11-22T20:08:40.238Z,90.11
2022-11-22T20:11:09.940Z,89.93
2022-11-22T20:13:38.989Z,90.01
2022-11-22T20:16:23.522Z,90.17
2022-11-22T20:19:04.588Z,90.45
2022-11-22T20:21:33.336Z,89.80
2022-11-22T20:24:00.779Z,90.62
2022-11-22T20:26:29.116Z,90.07
2022-11-22T20:29:03.832Z,90.75
2022-11-22T20:31:32.227Z,90.11
2022-11-22T20:34:00.765Z,89.94
2022-11-22T20:36:29.672Z,90.21
2022-11-22T20:38:57.229Z,90.13
2022-11-22T20:41:27.870Z,90.51
2022-11-22T20:43:55.387Z,90.14
2022-11-22T20:46:24.743Z,90.19
2022-11-22T20:48:55.261Z,90.07
2022-11-22T20:51:24.465Z,90.42
2022-11-22T20:53:55.096Z,90.41
2022-11-22T20:56:21.901Z,90.62
2022-11-22T20:58:49.152Z,90.25
2022-11-22T21:01:21.424Z,90.63
2022-11-22T21:03:50.849Z,90.31
2022-11-22T21:06:20.815Z,91.02
2022-11-22T21:08:47.861Z,90.74
2022-11-22T21:11:21.852Z,90.61
2022-11-22T21:13:49.332Z,91.30
2022-11-22T21:16:23.893Z,91.41
2022-11-22T21:18:52.234Z,91.06
2022-11-22T21:21:23.121Z,91.25
2022-11-22T21:23:52.363Z,91.91
2022-11-22T21:26:19.360Z,91.59
2022-11-22T21:28:46.124Z,92.27
2022-11-22T21:31:12.856Z,92.36
2022-11-22T21:33:39.494Z,93.01
2022-11-22T21:36:06.891Z,93.10
2022-11-22T21:38:38.471Z,93.43
2022-11-22T21:41:37.684Z,93.77
2022-11-22T21:43:55.902Z,94.39
2022-11-22T21:46:22.698Z,95.11
2022-11-22T21:48:50.387Z,94.78
2022-11-22T21:51:17.266Z,94.68
2022-11-22T21:53:43.935Z,95.30
2022-11-22T21:56:10.506Z,95.64
2022-11-22T21:58:37.146Z,95.86
2022-11-22T22:01:10.912Z,95.78
2022-11-22T22:03:40.167Z,95.47
2022-11-22T22:06:08.278Z,95.50
2022-11-22T22:08:35.715Z,95.48
2022-11-22T22:11:05.064Z,94.62
2022-11-22T22:13:32.078Z,95.26
2022-11-22T22:16:00.946Z,95.16
2022-11-22T22:18:36.124Z,94.75
2022-11-22T22:21:10.241Z,95.56
2022-11-22T22:23:39.442Z,95.52
2022-11-22T22:26:07.962Z,95.84
2022-11-22T22:28:36.897Z,95.45
2022-11-22T22:31:04.581Z,95.53
2022-11-22T22:33:31.627Z,95.86
2022-11-22T22:35:59.236Z,95.67
2022-11-22T22:38:26.377Z,96.56
2022-11-22T22:41:00.219Z,96.07
2022-11-22T22:43:31.703Z,96.46
2022-11-22T22:46:18.738Z,96.16
2022-11-22T22:48:45.737Z,96.23
2022-11-22T22:51:29.013Z,96.75
2022-11-22T22:53:58.973Z,96.43
2022-11-22T22:56:26.172Z,96.59
2022-11-22T22:58:57.197Z,96.86
2022-11-22T23:01:27.762Z,96.81
2022-11-22T23:03:59.442Z,97.05
2022-11-22T23:06:28.898Z,97.80
2022-11-22T23:08:56.280Z,96.93
2022-11-22T23:11:44.372Z,97.12
2022-11-22T23:14:12.819Z,97.63
2022-11-22T23:16:42.624Z,97.88
2022-11-22T23:19:09.610Z,97.90
2022-11-22T23:21:36.755Z,98.08
2022-11-22T23:24:03.870Z,98.57
2022-11-22T23:26:30.626Z,98.58
2022-11-22T23:28:59.144Z,98.96
2022-11-22T23:31:35.070Z,99.37
2022-11-22T23:34:02.192Z,99.04
2022-11-22T23:36:29.344Z,98.99
2022-11-22T23:38:56.185Z,98.78
2022-11-22T23:41:23.953Z,98.27
2022-11-22T23:43:55.746Z,98.47
2022-11-22T23:46:25.952Z,98.31
2022-11-22T23:48:55.089Z,97.99
2022-11-22T23:51:22.201Z,98.29
2022-11-22T23:53:49.139Z,97.84
2022-11-22T23:56:21.599Z,96.83
2022-11-22T23:58:49.174Z,97.13
